Anholt Island, Denmark

9:13 PM CEST on September 03, 2015 (GMT +0200)
Aarhus | | Change Station
CLOSE
Current Station
Airport
Location: Tirstrup,
Elevation: 75 ft
Nearby Weather Stations

Elev 75 ft 56.31 °N, 10.63 °E | Updated 23 minutes ago

Light Rain Showers
Light Showers Rain
57 °F
Feels Like 57 °F
N
2
Wind Variable Wind from SSE

Today
High -- | Low -- °F
--% Chance of Precip.
Yesterday
High -- | Low -- °F
Precip. -- in
6:19 AM 8:05 PM
Waning Gibbous, 67% visible
Pressure 29.89 in
Visibility 6.2 miles
Clouds Scattered Clouds 2800 ft
Mostly Cloudy 6100 ft
Mostly Cloudy 16000 ft
Dew Point 48 °F
Humidity 72%
Rainfall 0.00 in
Snow Depth Not available.
UV 0 out of 12
Pollen Not available.
Air Quality Not available.
Flu Activity Not available.
METAR EKAH 031850Z AUTO 16002KT 9999NDV -SHRA SCT028/// BKN061/// BKN160/// 14/09 Q1012
Pressure 29.89 in
Visibility 6.2 miles
Clouds Scattered Clouds 2800 ft
Mostly Cloudy 6100 ft
Mostly Cloudy 16000 ft
Dew Point 48 °F
Humidity 72%
Rainfall 0.00 in
Snow Depth Not available.
UV 0 out of 12
Pollen Not available.
Air Quality Not available.
Flu Activity Not available.
METAR EKAH 031850Z AUTO 16002KT 9999NDV -SHRA SCT028/// BKN061/// BKN160/// 14/09 Q1012

10-Day Weather Forecast

×

Almanac

Astronomy

Sep. 03, 2015 Rise Set
Actual Time
Civil Twilight
Nautical Twilight
Astronomical Twilight
Moon
Length of Visible Light
Length of Day
Tomorrow will be .
, % of the Moon is Illuminated

Today's Extremes

Country Highs Country Lows

Community

WunderPhotos

Upload Photos

1,852,014 photos uploaded!

WunderBlogs® & News

Nearby

Air Quality

  Air Quality AQ Index Pollutant
Not available.

Snow Depth

Station Depth Elevation

Earthquake Activity

City Distance Mag. Time & Date
Minimum magnitude displayed is 2.5.

Coastal Water Temperatures

Place Temperature

Stations

Nearby Weather Stations

Station Location Temp. Windchill Dew Point Humidity Wind Precip. Elev Updated Type